METAR AND TAF INFORMATION
METAR FOR ENBO
ADDS - METARS form results

(1501 UTC 15 September 2019)
Data provider http://aviationweather.gov/metar/data/
 
METAR text: ENBO 151450Z 09017KT 9999 FEW030 BKN200 12/04 Q0988 NOSIG
Conditions at: ENBO (BODO VI (CIV/MIL, NO) observed 1450 UTC 15 September 2019
Temperature: 12.0°C (54°F)
Dewpoint: 4.0°C (39°F) [RH = 58%]
Pressure (altimeter): 29.17 inches Hg (988.0 mb)
Winds: from the E (90 degrees) at 20 MPH (17 knots; 8.7 m/s)
Visibility: 6 or more miles (10+ km)
Ceiling: 20000 feet AGL
Clouds: few clouds at 3000 feet AGL
broken clouds at 20000 feet AGL
Weather: no significant weather observed at this time

METAR text: ENBO 151420Z 09019KT 9999 FEW030 BKN200 12/04 Q0988 NOSIG
Conditions at: ENBO (BODO VI (CIV/MIL, NO) observed 1420 UTC 15 September 2019
Temperature: 12.0°C (54°F)
Dewpoint: 4.0°C (39°F) [RH = 58%]
Pressure (altimeter): 29.17 inches Hg (988.0 mb)
Winds: from the E (90 degrees) at 22 MPH (19 knots; 9.8 m/s)
Visibility: 6 or more miles (10+ km)
Ceiling: 20000 feet AGL
Clouds: few clouds at 3000 feet AGL
broken clouds at 20000 feet AGL
Weather: no significant weather observed at this time

Forecast for: ENBO (BODO VI (CIV/MIL, NO)
Text: TAF ENBO 1512/1612 10018KT 9999 FEW030 SCT065
Forecast period: 1200 UTC 15 September 2019 to 0800 UTC 16 September 2019
Forecast type: FROM: standard forecast or significant change
Winds: from the E (100 degrees) at 21 MPH (18 knots; 9.3 m/s)
Visibility: 6 or more miles 10+ km)
Ceiling: at least 12,000 feet AGL
Clouds: few clouds at 3000 feet AGL
scattered clouds at 6500 feet AGL
Weather: no significant weather forecast for this period
Text: BECMG 1608/1610 09008KT
Forecast period: 0800 to 1200 UTC 16 September 2019
Forecast type: BECOMING: Conditions expected to become as follows by 1000 UTC 16 September 2019
Winds: from the E (90 degrees) at 9 MPH (8 knots; 4.1 m/s)
Visibility: 6 or more miles 10+ km)
Ceiling: at least 12,000 feet AGL
Clouds: few clouds at 3000 feet AGL
scattered clouds at 6500 feet AGL
Weather: no significant weather forecast for this period

 AIRPORT MAP

 RUNWAY INFORMATION
Runway 07 Runway length 11136 ft Runway width 148 ft
Runway elevation 17 ft Runway displaced threshold 1969 ft Runway heading 78
Runway 25 Runway length 11136 ft Runway width 148 ft
Runway elevation 39 ft Runway displaced threshold 0 ft Runway heading 258

 AIRPORT FREQUENCIES
Type A/D Name APP/DEP Frequency 119.7 MHZ
Type ATIS Name ATIS Frequency 123.9 MHZ
Type TWR Name TWR Frequency 118.1 MHZ

 AIRPORT NEAR NAVIGATION AIDS
Type VOR-DME Name Bodo Frequency 117200 KHZ
Type TACAN Name Bodo Frequency 110800 KHZ
Type NDB Name Fleinvaer Frequency 374 KHZ
Type NDB Name Fauske Frequency 326 KHZ
Type NDB Name Stott Frequency 317 KHZ